This is the latest recevied weather packets stored in our database for station/object KC8YYF. If no packets are shown the sender has not sent any weather packets the latest 10 day(s).
| Time | Temp. | Humidity | Pressure | Rain* | Wind** | Luminosity | Snow |
|---|---|---|---|---|---|---|---|
| 1777583951 | 11.11° C | 63% | 1015 hPa | 0 mm | - | 91 W/m² | - |
| 1777583647 | 11.67° C | 65% | 1015.2 hPa | 0 mm | - | 286 W/m² | - |
| 1777583346 | 10.56° C | 64% | 1015 hPa | 0 mm | - | 110 W/m² | - |
| 1777582737 | 11.67° C | 63% | 1015.2 hPa | 0 mm | - | 111 W/m² | - |
| 1777582433 | 12.22° C | 64% | 1015.2 hPa | 0 mm | - | 459 W/m² | - |
| 1777582133 | 10.56° C | 66% | 1015.4 hPa | 0 mm | - | 575 W/m² | - |
| 1777581826 | 10.56° C | 64% | 1015.3 hPa | 0 mm | - | 65 W/m² | - |
| 1777580921 | 8.89° C | 74% | 1015.4 hPa | 0 mm | - | 135 W/m² | - |
| 1777580312 | 8.33° C | 85% | 1015.4 hPa | 0.51 mm | - | 98 W/m² | - |
| 1777579704 | 8.33° C | 80% | 1015.6 hPa | 0 mm | - | 57 W/m² | - |
| 1777578488 | 8.33° C | 79% | 1015.6 hPa | 0 mm | - | 39 W/m² | - |
| 1777576055 | 10° C | 68% | 1015.4 hPa | 0 mm | - | 35 W/m² | - |
| 1777573928 | 11.11° C | 63% | 1015.2 hPa | 0 mm | - | 259 W/m² | - |
| 1777573015 | 11.67° C | 65% | 1015.4 hPa | 0 mm | - | 686 W/m² | - |
| 1777571191 | 10° C | 74% | 1015.5 hPa | 0 mm | - | 246 W/m² | - |
| 1777570582 | 9.44° C | 80% | 1015.7 hPa | 0 mm | - | 269 W/m² | - |
| 1777568760 | 8.89° C | 75% | 1015.6 hPa | 0 mm | - | 20 W/m² | - |
| 1777568154 | 8.89° C | 74% | 1015.6 hPa | 0 mm | - | 17 W/m² | - |
| 1777566943 | 9.44° C | 67% | 1015.4 hPa | 0 mm | - | 157 W/m² | - |
| 1777566338 | 8.89° C | 71% | 1015.3 hPa | 0 mm | - | 64 W/m² | - |
| 1777566035 | 9.44° C | 69% | 1015.6 hPa | 0 mm | - | 69 W/m² | - |
| 1777565427 | 10° C | 71% | 1015.9 hPa | 0 mm | - | 352 W/m² | - |
| 1777565125 | 9.44° C | 74% | 1015.9 hPa | 0 mm | - | 257 W/m² | - |
| 1777564820 | 8.33° C | 74% | 1015.7 hPa | 0 mm | - | 165 W/m² | - |
| 1777564515 | 8.33° C | 75% | 1015.8 hPa | 0 mm | - | 42 W/m² | - |
* Rain latest hour (hover to see other rain measurements)
** Current wind speed in m/s (hover to see current wind gust speed)